sensor_id;sensor_type;location;lat;lon;timestamp;pressure;altitude;pressure_sealevel;temperature;humidity
74973;BME280;63529;56.320;43.990;2023-05-10T00:01:32;100749.50;;;7.85;38.24
74973;BME280;63529;56.320;43.990;2023-05-10T00:03:58;100744.19;;;7.85;38.09
74973;BME280;63529;56.320;43.990;2023-05-10T00:06:24;100744.19;;;7.85;38.02
74973;BME280;63529;56.320;43.990;2023-05-10T00:08:50;100743.00;;;7.81;37.83
74973;BME280;63529;56.320;43.990;2023-05-10T00:11:15;100741.75;;;7.84;38.20
74973;BME280;63529;56.320;43.990;2023-05-10T00:13:41;100741.53;;;7.85;38.17
74973;BME280;63529;56.320;43.990;2023-05-10T00:16:07;100743.72;;;7.88;37.93
74973;BME280;63529;56.320;43.990;2023-05-10T00:18:33;100737.19;;;7.91;37.89
74973;BME280;63529;56.320;43.990;2023-05-10T00:20:58;100748.97;;;7.95;37.67
74973;BME280;63529;56.320;43.990;2023-05-10T00:23:24;100739.75;;;7.98;37.84
74973;BME280;63529;56.320;43.990;2023-05-10T00:25:50;100747.06;;;8.02;37.34
74973;BME280;63529;56.320;43.990;2023-05-10T00:28:16;100741.53;;;8.04;37.59
74973;BME280;63529;56.320;43.990;2023-05-10T00:30:42;100740.50;;;8.05;37.73
74973;BME280;63529;56.320;43.990;2023-05-10T00:33:08;100739.44;;;8.06;37.84
74973;BME280;63529;56.320;43.990;2023-05-10T00:35:33;100736.78;;;8.06;37.86
74973;BME280;63529;56.320;43.990;2023-05-10T00:37:59;100736.78;;;8.06;37.68
74973;BME280;63529;56.320;43.990;2023-05-10T00:40:25;100735.41;;;8.03;37.84
74973;BME280;63529;56.320;43.990;2023-05-10T00:42:56;100740.34;;;8.00;38.29
74973;BME280;63529;56.320;43.990;2023-05-10T00:45:22;100741.84;;;7.96;38.23
74973;BME280;63529;56.320;43.990;2023-05-10T00:47:50;100746.31;;;7.95;38.38
74973;BME280;63529;56.320;43.990;2023-05-10T00:50:18;100740.06;;;7.89;38.29
74973;BME280;63529;56.320;43.990;2023-05-10T00:52:43;100736.59;;;7.89;38.46
74973;BME280;63529;56.320;43.990;2023-05-10T00:55:11;100740.06;;;7.89;39.48
74973;BME280;63529;56.320;43.990;2023-05-10T00:57:38;100744.34;;;7.91;39.75
74973;BME280;63529;56.320;43.990;2023-05-10T01:00:04;100739.59;;;7.93;39.35
74973;BME280;63529;56.320;43.990;2023-05-10T01:02:30;100744.25;;;7.97;39.40
74973;BME280;63529;56.320;43.990;2023-05-10T01:04:56;100742.78;;;8.01;39.73
74973;BME280;63529;56.320;43.990;2023-05-10T01:07:22;100740.72;;;8.03;39.78
74973;BME280;63529;56.320;43.990;2023-05-10T01:09:48;100731.25;;;8.07;39.40
74973;BME280;63529;56.320;43.990;2023-05-10T01:12:15;100732.66;;;8.10;39.53
74973;BME280;63529;56.320;43.990;2023-05-10T01:14:41;100742.25;;;8.11;39.54
74973;BME280;63529;56.320;43.990;2023-05-10T01:17:07;100743.06;;;8.11;39.36
74973;BME280;63529;56.320;43.990;2023-05-10T01:19:35;100741.59;;;8.15;38.82
74973;BME280;63529;56.320;43.990;2023-05-10T01:38:22;100740.34;;;8.78;37.18
74973;BME280;63529;56.320;43.990;2023-05-10T01:43:36;100732.31;;;8.96;36.85
74973;BME280;63529;56.320;43.990;2023-05-10T01:46:07;100734.38;;;9.06;36.62
74973;BME280;63529;56.320;43.990;2023-05-10T01:48:46;100729.56;;;9.15;36.61
74973;BME280;63529;56.320;43.990;2023-05-10T01:51:21;100729.56;;;9.27;36.43
74973;BME280;63529;56.320;43.990;2023-05-10T01:53:48;100737.22;;;9.35;36.27
74973;BME280;63529;56.320;43.990;2023-05-10T01:56:16;100729.66;;;9.43;35.70
74973;BME280;63529;56.320;43.990;2023-05-10T01:58:44;100728.06;;;9.54;35.44
74973;BME280;63529;56.320;43.990;2023-05-10T02:01:13;100734.66;;;9.63;35.59
74973;BME280;63529;56.320;43.990;2023-05-10T02:03:40;100728.94;;;9.71;35.49
74973;BME280;63529;56.320;43.990;2023-05-10T02:06:09;100731.28;;;9.79;35.46
74973;BME280;63529;56.320;43.990;2023-05-10T02:08:36;100737.84;;;9.89;35.74
74973;BME280;63529;56.320;43.990;2023-05-10T02:11:03;100734.81;;;9.97;35.36
74973;BME280;63529;56.320;43.990;2023-05-10T02:13:34;100724.63;;;10.05;35.38
74973;BME280;63529;56.320;43.990;2023-05-10T02:16:01;100728.88;;;10.18;35.25
74973;BME280;63529;56.320;43.990;2023-05-10T02:18:29;100729.69;;;10.30;35.18
74973;BME280;63529;56.320;43.990;2023-05-10T02:20:57;100729.16;;;10.45;34.78
74973;BME280;63529;56.320;43.990;2023-05-10T02:23:24;100728.59;;;10.60;33.97
74973;BME280;63529;56.320;43.990;2023-05-10T02:25:53;100722.16;;;10.73;33.29
74973;BME280;63529;56.320;43.990;2023-05-10T02:28:22;100721.84;;;10.86;32.80
74973;BME280;63529;56.320;43.990;2023-05-10T02:30:49;100718.59;;;11.01;32.84
74973;BME280;63529;56.320;43.990;2023-05-10T02:33:16;100721.03;;;11.19;32.74
74973;BME280;63529;56.320;43.990;2023-05-10T02:35:42;100718.09;;;11.37;32.53
74973;BME280;63529;56.320;43.990;2023-05-10T02:38:09;100722.44;;;11.60;32.74
74973;BME280;63529;56.320;43.990;2023-05-10T02:40:37;100711.00;;;11.82;32.29
74973;BME280;63529;56.320;43.990;2023-05-10T02:43:06;100713.19;;;12.07;31.95
74973;BME280;63529;56.320;43.990;2023-05-10T02:45:35;100709.34;;;12.25;31.39
74973;BME280;63529;56.320;43.990;2023-05-10T02:48:02;100707.06;;;12.38;30.92
74973;BME280;63529;56.320;43.990;2023-05-10T02:50:30;100708.53;;;12.51;30.88
74973;BME280;63529;56.320;43.990;2023-05-10T02:53:11;100704.91;;;12.62;30.80
74973;BME280;63529;56.320;43.990;2023-05-10T02:55:41;100709.59;;;12.77;30.80
74973;BME280;63529;56.320;43.990;2023-05-10T02:58:08;100705.19;;;12.93;30.58
74973;BME280;63529;56.320;43.990;2023-05-10T03:00:34;100701.25;;;13.06;30.46
74973;BME280;63529;56.320;43.990;2023-05-10T03:03:02;100702.66;;;13.13;30.14
74973;BME280;63529;56.320;43.990;2023-05-10T03:05:27;100702.75;;;13.23;30.10
74973;BME280;63529;56.320;43.990;2023-05-10T03:07:54;100709.00;;;13.34;30.14
74973;BME280;63529;56.320;43.990;2023-05-10T03:10:24;100706.16;;;13.51;29.91
74973;BME280;63529;56.320;43.990;2023-05-10T03:15:42;100700.44;;;13.95;29.47
74973;BME280;63529;56.320;43.990;2023-05-10T03:18:23;100708.41;;;14.47;28.88
74973;BME280;63529;56.320;43.990;2023-05-10T03:20:57;100705.25;;;16.12;27.21
74973;BME280;63529;56.320;43.990;2023-05-10T03:23:35;100705.16;;;16.66;26.29
74973;BME280;63529;56.320;43.990;2023-05-10T03:26:05;100706.75;;;16.72;26.29
74973;BME280;63529;56.320;43.990;2023-05-10T03:28:34;100703.28;;;16.72;26.24
74973;BME280;63529;56.320;43.990;2023-05-10T03:31:02;100702.47;;;17.58;25.86
74973;BME280;63529;56.320;43.990;2023-05-10T03:33:30;100700.69;;;20.78;23.29
74973;BME280;63529;56.320;43.990;2023-05-10T03:35:57;100697.00;;;23.79;20.63
74973;BME280;63529;56.320;43.990;2023-05-10T03:38:23;100703.56;;;23.87;19.78
74973;BME280;63529;56.320;43.990;2023-05-10T03:40:49;100699.34;;;23.21;20.25
74973;BME280;63529;56.320;43.990;2023-05-10T03:43:15;100693.47;;;22.41;20.97
74973;BME280;63529;56.320;43.990;2023-05-10T03:45:41;100696.47;;;22.05;21.29
74973;BME280;63529;56.320;43.990;2023-05-10T03:48:07;100689.22;;;21.75;21.41
74973;BME280;63529;56.320;43.990;2023-05-10T03:50:33;100697.06;;;21.36;22.03
74973;BME280;63529;56.320;43.990;2023-05-10T03:52:58;100694.81;;;21.07;22.43
74973;BME280;63529;56.320;43.990;2023-05-10T03:55:26;100692.97;;;20.94;22.59
74973;BME280;63529;56.320;43.990;2023-05-10T03:57:52;100694.34;;;20.83;22.53
74973;BME280;63529;56.320;43.990;2023-05-10T04:00:21;100703.16;;;20.89;22.35
74973;BME280;63529;56.320;43.990;2023-05-10T04:02:49;100700.84;;;21.27;21.94
74973;BME280;63529;56.320;43.990;2023-05-10T04:05:18;100691.53;;;22.16;21.04
74973;BME280;63529;56.320;43.990;2023-05-10T04:07:43;100696.69;;;22.95;20.27
74973;BME280;63529;56.320;43.990;2023-05-10T04:10:10;100695.06;;;23.03;19.99
74973;BME280;63529;56.320;43.990;2023-05-10T04:12:36;100700.94;;;23.14;19.86
74973;BME280;63529;56.320;43.990;2023-05-10T04:15:03;100695.25;;;23.36;19.74
74973;BME280;63529;56.320;43.990;2023-05-10T04:17:29;100698.38;;;23.55;19.27
74973;BME280;63529;56.320;43.990;2023-05-10T04:19:55;100696.09;;;23.75;19.05
74973;BME280;63529;56.320;43.990;2023-05-10T04:22:21;100694.88;;;23.85;18.69
74973;BME280;63529;56.320;43.990;2023-05-10T04:24:47;100696.72;;;23.72;18.68
74973;BME280;63529;56.320;43.990;2023-05-10T04:27:13;100694.25;;;23.49;18.66
74973;BME280;63529;56.320;43.990;2023-05-10T04:29:38;100690.97;;;23.26;18.60
74973;BME280;63529;56.320;43.990;2023-05-10T04:32:04;100695.81;;;23.12;18.75
74973;BME280;63529;56.320;43.990;2023-05-10T04:34:30;100695.97;;;23.07;18.53
74973;BME280;63529;56.320;43.990;2023-05-10T04:36:57;100693.72;;;23.18;18.72
74973;BME280;63529;56.320;43.990;2023-05-10T04:39:22;100694.38;;;23.53;18.37
74973;BME280;63529;56.320;43.990;2023-05-10T04:41:48;100688.97;;;25.44;17.34
74973;BME280;63529;56.320;43.990;2023-05-10T04:44:14;100694.41;;;27.02;16.01
74973;BME280;63529;56.320;43.990;2023-05-10T04:46:40;100699.75;;;27.58;15.68
74973;BME280;63529;56.320;43.990;2023-05-10T04:49:06;100699.94;;;28.74;14.90
74973;BME280;63529;56.320;43.990;2023-05-10T04:51:31;100699.16;;;29.16;14.46
74973;BME280;63529;56.320;43.990;2023-05-10T04:53:58;100690.53;;;28.95;14.34
74973;BME280;63529;56.320;43.990;2023-05-10T04:56:23;100688.16;;;29.16;14.29
74973;BME280;63529;56.320;43.990;2023-05-10T04:58:49;100685.44;;;29.65;14.20
74973;BME280;63529;56.320;43.990;2023-05-10T05:01:15;100682.16;;;29.83;13.65
74973;BME280;63529;56.320;43.990;2023-05-10T05:03:41;100684.00;;;31.43;12.96
74973;BME280;63529;56.320;43.990;2023-05-10T05:06:08;100683.66;;;32.18;12.59
74973;BME280;63529;56.320;43.990;2023-05-10T05:08:33;100686.03;;;32.16;12.31
74973;BME280;63529;56.320;43.990;2023-05-10T05:10:59;100679.16;;;31.88;12.55
74973;BME280;63529;56.320;43.990;2023-05-10T05:13:25;100675.38;;;31.52;12.85
74973;BME280;63529;56.320;43.990;2023-05-10T05:15:51;100679.22;;;31.40;13.12
74973;BME280;63529;56.320;43.990;2023-05-10T05:18:17;100680.16;;;31.62;12.88
74973;BME280;63529;56.320;43.990;2023-05-10T05:20:43;100673.34;;;32.04;12.80
74973;BME280;63529;56.320;43.990;2023-05-10T05:23:08;100671.50;;;32.33;13.12
74973;BME280;63529;56.320;43.990;2023-05-10T05:25:34;100677.13;;;32.54;12.60
74973;BME280;63529;56.320;43.990;2023-05-10T05:28:01;100674.38;;;32.65;12.88
74973;BME280;63529;56.320;43.990;2023-05-10T05:30:27;100674.44;;;33.18;12.55
74973;BME280;63529;56.320;43.990;2023-05-10T05:32:53;100672.47;;;33.44;12.23
74973;BME280;63529;56.320;43.990;2023-05-10T05:35:19;100665.69;;;33.81;12.06
74973;BME280;63529;56.320;43.990;2023-05-10T05:37:45;100658.00;;;34.31;11.86
74973;BME280;63529;56.320;43.990;2023-05-10T05:40:14;100665.34;;;36.65;10.92
74973;BME280;63529;56.320;43.990;2023-05-10T05:42:40;100666.66;;;37.98;10.49
74973;BME280;63529;56.320;43.990;2023-05-10T05:45:06;100664.97;;;38.20;9.84
74973;BME280;63529;56.320;43.990;2023-05-10T05:47:34;100660.13;;;38.61;9.73
74973;BME280;63529;56.320;43.990;2023-05-10T05:50:00;100656.84;;;40.82;8.98
74973;BME280;63529;56.320;43.990;2023-05-10T05:52:26;100658.50;;;43.35;7.69
74973;BME280;63529;56.320;43.990;2023-05-10T05:54:52;100655.00;;;44.23;7.19
74973;BME280;63529;56.320;43.990;2023-05-10T05:57:18;100657.13;;;44.70;6.79
74973;BME280;63529;56.320;43.990;2023-05-10T05:59:44;100658.16;;;46.13;6.47
74973;BME280;63529;56.320;43.990;2023-05-10T06:02:10;100650.84;;;47.58;6.11
74973;BME280;63529;56.320;43.990;2023-05-10T06:04:36;100652.16;;;48.46;5.64
74973;BME280;63529;56.320;43.990;2023-05-10T06:07:02;100647.66;;;49.42;5.43
74973;BME280;63529;56.320;43.990;2023-05-10T06:09:27;100653.16;;;50.30;4.94
74973;BME280;63529;56.320;43.990;2023-05-10T06:11:53;100646.53;;;50.85;4.71
74973;BME280;63529;56.320;43.990;2023-05-10T06:14:22;100648.38;;;51.35;4.59
74973;BME280;63529;56.320;43.990;2023-05-10T06:16:48;100650.88;;;51.86;4.28
74973;BME280;63529;56.320;43.990;2023-05-10T06:19:14;100633.28;;;52.12;4.29
74973;BME280;63529;56.320;43.990;2023-05-10T06:21:40;100641.97;;;51.95;4.42
74973;BME280;63529;56.320;43.990;2023-05-10T06:24:06;100642.13;;;52.08;4.16
74973;BME280;63529;56.320;43.990;2023-05-10T06:26:32;100631.81;;;52.29;4.10
74973;BME280;63529;56.320;43.990;2023-05-10T06:28:58;100634.00;;;52.42;4.13
74973;BME280;63529;56.320;43.990;2023-05-10T06:31:24;100633.38;;;52.74;3.68
74973;BME280;63529;56.320;43.990;2023-05-10T06:33:50;100634.72;;;53.10;3.93
74973;BME280;63529;56.320;43.990;2023-05-10T06:36:16;100627.41;;;52.96;3.68
74973;BME280;63529;56.320;43.990;2023-05-10T06:38:42;100626.25;;;53.05;3.99
74973;BME280;63529;56.320;43.990;2023-05-10T06:41:08;100627.09;;;53.19;3.73
74973;BME280;63529;56.320;43.990;2023-05-10T06:43:34;100622.91;;;53.38;3.46
74973;BME280;63529;56.320;43.990;2023-05-10T06:46:00;100623.91;;;53.73;3.32
74973;BME280;63529;56.320;43.990;2023-05-10T06:48:26;100628.59;;;53.89;3.30
74973;BME280;63529;56.320;43.990;2023-05-10T06:50:51;100617.31;;;54.24;3.14
74973;BME280;63529;56.320;43.990;2023-05-10T06:53:17;100607.63;;;54.53;3.40
74973;BME280;63529;56.320;43.990;2023-05-10T06:55:43;100614.31;;;54.69;3.31
74973;BME280;63529;56.320;43.990;2023-05-10T06:58:09;100609.56;;;54.71;2.89
74973;BME280;63529;56.320;43.990;2023-05-10T07:00:35;100613.69;;;54.97;3.16
74973;BME280;63529;56.320;43.990;2023-05-10T07:03:06;100612.00;;;55.15;3.09
74973;BME280;63529;56.320;43.990;2023-05-10T07:05:32;100611.34;;;55.43;2.73
74973;BME280;63529;56.320;43.990;2023-05-10T07:07:58;100610.81;;;55.94;3.03
74973;BME280;63529;56.320;43.990;2023-05-10T07:10:24;100614.63;;;56.17;2.95
74973;BME280;63529;56.320;43.990;2023-05-10T07:12:50;100615.81;;;56.22;2.69
74973;BME280;63529;56.320;43.990;2023-05-10T07:15:16;100607.22;;;56.22;2.71
74973;BME280;63529;56.320;43.990;2023-05-10T07:17:42;100609.47;;;56.52;2.42
74973;BME280;63529;56.320;43.990;2023-05-10T07:20:08;100607.13;;;56.79;2.46
74973;BME280;63529;56.320;43.990;2023-05-10T07:22:34;100605.34;;;57.20;2.34
74973;BME280;63529;56.320;43.990;2023-05-10T07:25:00;100605.00;;;57.61;2.14
74973;BME280;63529;56.320;43.990;2023-05-10T07:27:26;100601.72;;;57.96;1.95
74973;BME280;63529;56.320;43.990;2023-05-10T07:29:52;100595.22;;;58.58;1.46
74973;BME280;63529;56.320;43.990;2023-05-10T07:32:18;100590.75;;;59.05;1.63
74973;BME280;63529;56.320;43.990;2023-05-10T07:34:44;100592.53;;;57.82;1.89
74973;BME280;63529;56.320;43.990;2023-05-10T07:37:10;100589.19;;;53.69;2.92
74973;BME280;63529;56.320;43.990;2023-05-10T07:39:36;100594.53;;;50.04;3.33
74973;BME280;63529;56.320;43.990;2023-05-10T07:42:02;100583.28;;;51.56;3.24
74973;BME280;63529;56.320;43.990;2023-05-10T07:44:28;100580.81;;;54.30;2.84
74973;BME280;63529;56.320;43.990;2023-05-10T07:46:54;100584.84;;;55.92;2.27
74973;BME280;63529;56.320;43.990;2023-05-10T07:49:21;100566.50;;;54.90;2.63
74973;BME280;63529;56.320;43.990;2023-05-10T07:51:49;100574.41;;;55.73;2.27
74973;BME280;63529;56.320;43.990;2023-05-10T07:54:15;100574.50;;;57.20;2.14
74973;BME280;63529;56.320;43.990;2023-05-10T07:56:41;100573.13;;;58.61;1.52
74973;BME280;63529;56.320;43.990;2023-05-10T07:59:15;100561.63;;;56.39;1.90
74973;BME280;63529;56.320;43.990;2023-05-10T08:01:41;100570.34;;;54.59;2.29
74973;BME280;63529;56.320;43.990;2023-05-10T08:04:07;100577.38;;;51.13;3.26
74973;BME280;63529;56.320;43.990;2023-05-10T08:06:34;100564.28;;;47.72;3.97
74973;BME280;63529;56.320;43.990;2023-05-10T08:09:00;100563.94;;;45.22;4.92
74973;BME280;63529;56.320;43.990;2023-05-10T08:11:26;100555.91;;;43.49;5.35
74973;BME280;63529;56.320;43.990;2023-05-10T08:13:55;100558.88;;;42.72;5.63
74973;BME280;63529;56.320;43.990;2023-05-10T08:16:21;100546.84;;;43.54;5.21
74973;BME280;63529;56.320;43.990;2023-05-10T08:18:47;100555.97;;;41.95;5.79
74973;BME280;63529;56.320;43.990;2023-05-10T08:21:15;100554.75;;;43.74;5.54
74973;BME280;63529;56.320;43.990;2023-05-10T08:23:41;100546.72;;;47.10;4.37
74973;BME280;63529;56.320;43.990;2023-05-10T08:26:09;100544.44;;;50.07;3.71
74973;BME280;63529;56.320;43.990;2023-05-10T08:28:35;100549.16;;;52.29;3.02
74973;BME280;63529;56.320;43.990;2023-05-10T08:31:01;100549.19;;;53.69;3.07
74973;BME280;63529;56.320;43.990;2023-05-10T08:33:26;100555.25;;;54.58;2.61
74973;BME280;63529;56.320;43.990;2023-05-10T08:35:53;100539.34;;;55.18;2.56
74973;BME280;63529;56.320;43.990;2023-05-10T08:38:18;100541.41;;;55.59;2.23
74973;BME280;63529;56.320;43.990;2023-05-10T08:40:45;100535.66;;;55.80;2.34
74973;BME280;63529;56.320;43.990;2023-05-10T08:43:12;100534.09;;;55.71;2.55
74973;BME280;63529;56.320;43.990;2023-05-10T08:45:42;100533.53;;;55.10;2.52
74973;BME280;63529;56.320;43.990;2023-05-10T08:48:11;100533.44;;;54.82;2.69
74973;BME280;63529;56.320;43.990;2023-05-10T08:50:38;100535.47;;;54.60;2.75
74973;BME280;63529;56.320;43.990;2023-05-10T08:53:09;100529.44;;;54.37;2.48
74973;BME280;63529;56.320;43.990;2023-05-10T08:55:35;100528.03;;;54.17;2.94
74973;BME280;63529;56.320;43.990;2023-05-10T08:58:03;100532.78;;;53.88;2.55
74973;BME280;63529;56.320;43.990;2023-05-10T09:00:29;100526.00;;;53.59;2.91
74973;BME280;63529;56.320;43.990;2023-05-10T09:02:55;100518.75;;;52.75;2.88
74973;BME280;63529;56.320;43.990;2023-05-10T09:05:22;100516.09;;;49.34;3.49
74973;BME280;63529;56.320;43.990;2023-05-10T09:07:48;100507.22;;;45.05;4.62
74973;BME280;63529;56.320;43.990;2023-05-10T09:10:15;100504.22;;;41.21;6.09
74973;BME280;63529;56.320;43.990;2023-05-10T09:12:41;100497.38;;;37.98;7.05
74973;BME280;63529;56.320;43.990;2023-05-10T09:15:10;100489.84;;;35.45;7.87
74973;BME280;63529;56.320;43.990;2023-05-10T09:17:37;100486.56;;;33.56;9.07
74973;BME280;63529;56.320;43.990;2023-05-10T09:20:04;100491.06;;;32.11;9.33
74973;BME280;63529;56.320;43.990;2023-05-10T09:22:31;100488.56;;;30.94;10.07
74973;BME280;63529;56.320;43.990;2023-05-10T09:25:07;100486.34;;;29.84;10.82
74973;BME280;63529;56.320;43.990;2023-05-10T09:27:35;100480.31;;;28.88;11.27
74973;BME280;63529;56.320;43.990;2023-05-10T09:30:02;100474.38;;;28.14;11.54
74973;BME280;63529;56.320;43.990;2023-05-10T09:32:43;100474.00;;;27.54;11.95
74973;BME280;63529;56.320;43.990;2023-05-10T09:35:16;100477.69;;;27.07;12.45
74973;BME280;63529;56.320;43.990;2023-05-10T09:37:44;100472.94;;;26.72;12.49
74973;BME280;63529;56.320;43.990;2023-05-10T09:40:16;100467.25;;;26.34;12.54
74973;BME280;63529;56.320;43.990;2023-05-10T09:42:53;100468.97;;;25.94;12.92
74973;BME280;63529;56.320;43.990;2023-05-10T09:45:20;100464.31;;;25.55;13.13
74973;BME280;63529;56.320;43.990;2023-05-10T09:47:46;100462.59;;;25.22;13.43
74973;BME280;63529;56.320;43.990;2023-05-10T09:50:13;100454.78;;;25.08;13.46
74973;BME280;63529;56.320;43.990;2023-05-10T09:52:59;100452.75;;;25.05;14.03
74973;BME280;63529;56.320;43.990;2023-05-10T09:55:42;100452.50;;;24.98;14.18
74973;BME280;63529;56.320;43.990;2023-05-10T09:58:13;100446.34;;;24.89;13.91
74973;BME280;63529;56.320;43.990;2023-05-10T10:00:41;100451.00;;;24.76;14.15
74973;BME280;63529;56.320;43.990;2023-05-10T10:03:13;100447.75;;;24.58;14.22
74973;BME280;63529;56.320;43.990;2023-05-10T10:05:41;100445.16;;;24.29;14.42
74973;BME280;63529;56.320;43.990;2023-05-10T10:08:11;100441.69;;;23.95;14.24
74973;BME280;63529;56.320;43.990;2023-05-10T10:10:37;100435.38;;;23.70;14.66
74973;BME280;63529;56.320;43.990;2023-05-10T10:13:06;100438.28;;;23.44;15.12
74973;BME280;63529;56.320;43.990;2023-05-10T10:15:33;100439.75;;;23.21;15.25
74973;BME280;63529;56.320;43.990;2023-05-10T10:18:00;100435.06;;;23.00;15.11
74973;BME280;63529;56.320;43.990;2023-05-10T10:20:26;100427.00;;;22.83;15.11
74973;BME280;63529;56.320;43.990;2023-05-10T10:22:52;100424.13;;;22.80;15.23
74973;BME280;63529;56.320;43.990;2023-05-10T10:25:20;100418.66;;;22.88;15.49
74973;BME280;63529;56.320;43.990;2023-05-10T10:30:28;100423.34;;;23.29;15.39
74973;BME280;63529;56.320;43.990;2023-05-10T10:35:33;100416.69;;;24.05;14.94
74973;BME280;63529;56.320;43.990;2023-05-10T10:38:00;100416.66;;;24.51;14.79
74973;BME280;63529;56.320;43.990;2023-05-10T10:40:28;100404.72;;;24.92;14.40
74973;BME280;63529;56.320;43.990;2023-05-10T10:42:55;100408.69;;;25.35;14.25
74973;BME280;63529;56.320;43.990;2023-05-10T10:45:22;100410.19;;;25.60;14.20
74973;BME280;63529;56.320;43.990;2023-05-10T10:47:49;100404.84;;;25.64;13.94
74973;BME280;63529;56.320;43.990;2023-05-10T10:50:19;100402.63;;;25.41;14.24
74973;BME280;63529;56.320;43.990;2023-05-10T10:52:45;100408.25;;;25.05;14.29
74973;BME280;63529;56.320;43.990;2023-05-10T10:55:17;100403.00;;;24.75;14.55
74973;BME280;63529;56.320;43.990;2023-05-10T10:57:55;100401.31;;;24.34;14.84
74973;BME280;63529;56.320;43.990;2023-05-10T11:03:11;100396.19;;;23.75;15.54
74973;BME280;63529;56.320;43.990;2023-05-10T11:05:49;100393.69;;;23.70;16.18
74973;BME280;63529;56.320;43.990;2023-05-10T11:08:28;100392.19;;;23.72;16.65
74973;BME280;63529;56.320;43.990;2023-05-10T11:13:44;100384.00;;;24.18;17.26
74973;BME280;63529;56.320;43.990;2023-05-10T11:16:12;100387.69;;;24.46;17.04
74973;BME280;63529;56.320;43.990;2023-05-10T11:18:38;100382.19;;;24.71;16.39
74973;BME280;63529;56.320;43.990;2023-05-10T11:21:04;100371.59;;;24.81;15.95
74973;BME280;63529;56.320;43.990;2023-05-10T11:26:13;100370.47;;;24.82;15.84
74973;BME280;63529;56.320;43.990;2023-05-10T11:28:47;100367.44;;;24.59;15.79
74973;BME280;63529;56.320;43.990;2023-05-10T11:31:17;100364.47;;;24.28;16.01
74973;BME280;63529;56.320;43.990;2023-05-10T11:33:48;100355.19;;;23.83;16.25
74973;BME280;63529;56.320;43.990;2023-05-10T11:36:18;100352.13;;;23.52;16.09
74973;BME280;63529;56.320;43.990;2023-05-10T11:38:46;100352.97;;;23.32;16.42
74973;BME280;63529;56.320;43.990;2023-05-10T11:41:12;100357.75;;;23.14;16.59
74973;BME280;63529;56.320;43.990;2023-05-10T11:43:39;100350.53;;;22.76;16.69
74973;BME280;63529;56.320;43.990;2023-05-10T11:46:10;100353.81;;;22.31;16.86
74973;BME280;63529;56.320;43.990;2023-05-10T11:48:58;100349.28;;;21.97;17.13
74973;BME280;63529;56.320;43.990;2023-05-10T11:51:27;100343.59;;;21.81;17.34
74973;BME280;63529;56.320;43.990;2023-05-10T11:53:55;100344.38;;;21.82;17.53
74973;BME280;63529;56.320;43.990;2023-05-10T11:56:21;100334.50;;;21.68;17.48
74973;BME280;63529;56.320;43.990;2023-05-10T11:58:53;100335.81;;;21.45;17.48
74973;BME280;63529;56.320;43.990;2023-05-10T12:01:21;100339.03;;;21.21;17.83
74973;BME280;63529;56.320;43.990;2023-05-10T12:03:48;100336.31;;;21.04;18.19
74973;BME280;63529;56.320;43.990;2023-05-10T12:06:15;100343.34;;;21.22;18.18
74973;BME280;63529;56.320;43.990;2023-05-10T12:08:45;100333.28;;;21.49;17.97
74973;BME280;63529;56.320;43.990;2023-05-10T12:11:12;100332.09;;;21.76;17.57
74973;BME280;63529;56.320;43.990;2023-05-10T12:13:43;100337.47;;;21.93;17.63
74973;BME280;63529;56.320;43.990;2023-05-10T12:16:19;100321.13;;;22.02;17.28
74973;BME280;63529;56.320;43.990;2023-05-10T12:18:49;100316.16;;;22.12;17.29
74973;BME280;63529;56.320;43.990;2023-05-10T12:21:17;100310.09;;;22.36;17.18
74973;BME280;63529;56.320;43.990;2023-05-10T12:23:45;100314.38;;;22.67;17.18
74973;BME280;63529;56.320;43.990;2023-05-10T12:26:12;100322.78;;;23.04;17.09
74973;BME280;63529;56.320;43.990;2023-05-10T12:28:38;100311.84;;;23.58;16.45
74973;BME280;63529;56.320;43.990;2023-05-10T12:31:07;100310.09;;;23.86;16.31
74973;BME280;63529;56.320;43.990;2023-05-10T12:33:43;100315.34;;;23.91;16.25
74973;BME280;63529;56.320;43.990;2023-05-10T12:36:14;100316.34;;;23.74;16.62
74973;BME280;63529;56.320;43.990;2023-05-10T12:38:42;100316.31;;;23.62;16.67
74973;BME280;63529;56.320;43.990;2023-05-10T12:41:17;100314.28;;;23.38;16.75
74973;BME280;63529;56.320;43.990;2023-05-10T12:43:44;100308.03;;;23.05;16.71
74973;BME280;63529;56.320;43.990;2023-05-10T12:46:12;100308.22;;;22.79;16.80
74973;BME280;63529;56.320;43.990;2023-05-10T12:48:40;100298.91;;;22.59;17.11
74973;BME280;63529;56.320;43.990;2023-05-10T12:51:07;100300.94;;;22.41;17.05
74973;BME280;63529;56.320;43.990;2023-05-10T12:53:39;100295.63;;;22.24;17.23
74973;BME280;63529;56.320;43.990;2023-05-10T12:56:05;100295.19;;;22.13;17.42
74973;BME280;63529;56.320;43.990;2023-05-10T12:58:31;100298.44;;;21.98;17.58
74973;BME280;63529;56.320;43.990;2023-05-10T13:00:58;100303.16;;;21.80;17.75
74973;BME280;63529;56.320;43.990;2023-05-10T13:03:24;100302.09;;;21.55;18.09
74973;BME280;63529;56.320;43.990;2023-05-10T13:05:50;100304.19;;;21.23;18.14
74973;BME280;63529;56.320;43.990;2023-05-10T13:08:16;100306.94;;;21.14;18.33
74973;BME280;63529;56.320;43.990;2023-05-10T13:10:42;100298.16;;;21.00;18.50
74973;BME280;63529;56.320;43.990;2023-05-10T13:13:08;100297.84;;;20.76;18.67
74973;BME280;63529;56.320;43.990;2023-05-10T13:15:34;100294.97;;;20.64;18.76
74973;BME280;63529;56.320;43.990;2023-05-10T13:18:00;100294.47;;;20.70;18.69
74973;BME280;63529;56.320;43.990;2023-05-10T13:20:26;100290.66;;;20.63;18.63
74973;BME280;63529;56.320;43.990;2023-05-10T13:22:53;100297.19;;;20.70;18.67